Time;durP1;ratioP1;P1;durP2;ratioP2;P2;SDS_P1;SDS_P2;PMS_P1;PMS_P2;Temp;Humidity;BMP_temperature;BMP_pressure;BME280_temperature;BME280_humidity;BME280_pressure;Samples;Min_cycle;Max_cycle;Signal;HPM_P1;HPM_P2
2023/06/10 00:01:18;;;;;;;9.10;8.20;;;18.80;76.30;;;;;;20996429;28;20239;-61
2023/06/10 00:11:21;;;;;;;8.70;7.80;;;18.70;76.80;;;;;;20996200;28;20208;-61
2023/06/10 00:21:25;;;;;;;10.60;8.73;;;18.60;77.50;;;;;;20995203;28;20247;-61
2023/06/10 00:31:26;;;;;;;9.30;8.30;;;18.50;78.30;;;;;;20995343;28;20200;-71
2023/06/10 00:41:28;;;;;;;12.97;8.87;;;18.40;79.20;;;;;;20994809;28;20232;-71
2023/06/10 00:51:30;;;;;;;10.57;8.30;;;18.30;79.70;;;;;;20995142;28;20651;-71
2023/06/10 01:01:33;;;;;;;11.87;8.57;;;18.20;80.20;;;;;;21010528;28;20242;-61
2023/06/10 01:11:47;;;;;;;13.07;9.10;;;18.00;80.70;;;;;;21009297;28;20446;-62
2023/06/10 01:21:49;;;;;;;11.23;9.07;;;17.90;81.50;;;;;;21008361;28;20299;-61
2023/06/10 01:32:22;;;;;;;11.90;8.60;;;17.80;82.00;;;;;;21008045;28;20294;-64
2023/06/10 01:42:25;;;;;;;12.83;9.13;;;17.60;82.50;;;;;;21006889;28;20235;-66
2023/06/10 01:52:27;;;;;;;10.47;8.67;;;17.60;83.40;;;;;;21006479;28;20204;-61
2023/06/10 02:02:29;;;;;;;9.90;8.90;;;17.50;84.20;;;;;;21005936;28;20242;-66
2023/06/10 02:12:31;;;;;;;9.90;8.90;;;17.40;84.80;;;;;;21004141;28;20204;-61
2023/06/10 02:22:33;;;;;;;11.20;9.70;;;17.40;85.40;;;;;;21003663;28;20276;-61
2023/06/10 02:32:35;;;;;;;14.30;9.07;;;17.30;86.20;;;;;;21003624;28;20238;-62
2023/06/10 02:42:36;;;;;;;11.50;9.33;;;17.10;86.90;;;;;;21002372;28;20240;-60
2023/06/10 02:52:38;;;;;;;11.30;9.30;;;17.00;87.60;;;;;;21001568;28;20341;-60
2023/06/10 03:02:40;;;;;;;12.13;9.87;;;16.90;88.20;;;;;;21001225;28;20234;-66
2023/06/10 03:12:42;;;;;;;11.53;9.33;;;16.80;89.00;;;;;;20999965;28;20210;-72
2023/06/10 03:22:44;;;;;;;10.87;9.77;;;16.80;89.90;;;;;;20998070;28;20718;-72
2023/06/10 03:32:46;;;;;;;12.43;9.60;;;16.70;90.30;;;;;;20999385;28;20295;-69
2023/06/10 03:42:48;;;;;;;13.40;9.90;;;16.60;90.70;;;;;;21000073;28;20238;-71
2023/06/10 03:52:50;;;;;;;12.60;9.60;;;16.70;90.90;;;;;;20998138;28;20289;-61
2023/06/10 04:02:52;;;;;;;12.93;10.47;;;16.60;91.30;;;;;;20996774;28;20589;-60
2023/06/10 04:12:54;;;;;;;12.43;9.50;;;16.70;91.50;;;;;;20994728;28;20238;-61
2023/06/10 04:22:55;;;;;;;20.00;10.50;;;16.80;91.70;;;;;;20995109;28;20239;-61
2023/06/10 04:32:57;;;;;;;16.33;10.57;;;16.90;91.90;;;;;;20995141;28;20297;-60
2023/06/10 04:42:59;;;;;;;17.33;10.50;;;17.10;92.30;;;;;;20994613;28;20238;-62
2023/06/10 04:53:01;;;;;;;11.90;9.87;;;17.30;92.40;;;;;;20994318;28;20265;-63
2023/06/10 05:03:03;;;;;;;12.63;10.43;;;17.40;92.50;;;;;;20994094;28;20262;-61
2023/06/10 05:13:05;;;;;;;16.13;10.63;;;17.70;92.30;;;;;;20993638;28;20203;-60
2023/06/10 05:23:06;;;;;;;15.03;10.50;;;17.90;92.10;;;;;;20992747;28;20252;-60
2023/06/10 05:33:08;;;;;;;11.93;9.70;;;18.20;91.90;;;;;;20993255;28;20205;-65
2023/06/10 05:43:11;;;;;;;13.03;10.93;;;18.50;91.70;;;;;;20999584;28;20239;-65
2023/06/10 05:53:14;;;;;;;11.43;8.43;;;18.90;91.10;;;;;;21005888;28;20209;-63
2023/06/10 06:03:17;;;;;;;11.73;8.07;;;19.10;90.00;;;;;;21005959;28;20712;-66
2023/06/10 06:13:19;;;;;;;10.50;7.80;;;19.50;89.00;;;;;;21004721;28;20605;-75
2023/06/10 06:23:21;;;;;;;11.93;8.10;;;19.70;86.40;;;;;;21004170;28;20268;-67
2023/06/10 06:33:23;;;;;;;10.90;7.70;;;20.10;85.50;;;;;;21006720;28;20210;-67
2023/06/10 06:43:25;;;;;;;12.27;8.43;;;20.50;84.00;;;;;;20985025;28;20241;-69
2023/06/10 06:53:27;;;;;;;13.43;8.40;;;21.20;81.90;;;;;;21001060;28;20260;-67
2023/06/10 07:03:32;;;;;;;10.43;8.03;;;21.30;82.00;;;;;;21000515;28;20235;-68
2023/06/10 07:13:34;;;;;;;13.73;8.17;;;21.70;80.50;;;;;;20999062;28;20214;-73
2023/06/10 07:23:35;;;;;;;17.63;7.97;;;22.20;78.40;;;;;;20998603;28;20245;-69
2023/06/10 07:33:39;;;;;;;11.93;7.67;;;22.60;76.40;;;;;;20998172;28;20203;-60
2023/06/10 07:43:40;;;;;;;11.33;7.17;;;22.90;74.20;;;;;;20996033;28;20231;-71
2023/06/10 07:53:43;;;;;;;10.70;7.10;;;23.20;72.70;;;;;;20994767;28;20296;-61
2023/06/10 08:03:44;;;;;;;8.73;7.23;;;23.40;71.00;;;;;;20995976;28;20326;-65
2023/06/10 08:13:46;;;;;;;11.43;7.47;;;23.70;69.80;;;;;;20995701;28;20235;-62
2023/06/10 08:23:52;;;;;;;13.40;7.00;;;23.90;68.60;;;;;;20995654;28;20231;-74
2023/06/10 08:33:53;;;;;;;9.90;6.47;;;24.10;67.40;;;;;;20995651;28;20294;-64
2023/06/10 08:44:15;;;;;;;14.27;6.17;;;24.30;66.00;;;;;;20994588;28;20690;-65
2023/06/10 08:54:27;;;;;;;10.17;5.80;;;24.50;65.10;;;;;;20957216;28;20726;-76
2023/06/10 09:04:29;;;;;;;7.50;5.60;;;24.80;64.10;;;;;;20919844;28;20282;-62
2023/06/10 09:14:30;;;;;;;7.87;5.40;;;25.00;62.90;;;;;;20933199;28;20326;-77
2023/06/10 09:24:33;;;;;;;6.70;5.80;;;25.10;61.70;;;;;;20956315;28;20244;-70
2023/06/10 09:34:36;;;;;;;5.90;5.40;;;25.30;61.10;;;;;;20925208;28;20219;-62
2023/06/10 09:44:39;;;;;;;7.37;4.90;;;25.60;60.10;;;;;;20924192;28;20326;-62
2023/06/10 09:54:44;;;;;;;4.93;4.50;;;25.80;59.50;;;;;;20923590;28;20659;-62
2023/06/10 10:04:46;;;;;;;10.43;4.50;;;25.90;58.70;;;;;;20923028;28;20327;-61
2023/06/10 10:14:49;;;;;;;4.13;3.73;;;26.10;58.10;;;;;;20921832;28;20236;-61
2023/06/10 10:24:55;;;;;;;4.77;3.97;;;26.30;56.80;;;;;;20920874;28;20385;-61
2023/06/10 10:35:18;;;;;;;17.63;4.30;;;26.50;55.60;;;;;;20920514;28;20237;-61
2023/06/10 10:45:21;;;;;;;6.33;4.40;;;26.80;54.60;;;;;;20902123;28;20241;-71
2023/06/10 10:55:24;;;;;;;8.10;3.80;;;26.90;53.60;;;;;;20918962;28;20200;-62
2023/06/10 11:05:35;;;;;;;4.10;3.70;;;27.10;53.10;;;;;;20900316;28;20239;-69
2023/06/10 11:15:49;;;;;;;5.87;4.27;;;27.40;52.20;;;;;;20917733;28;20334;-73
2023/06/10 11:25:51;;;;;;;4.83;4.00;;;27.60;51.20;;;;;;20916588;28;21028;-77
2023/06/10 11:35:53;;;;;;;5.60;4.27;;;27.70;50.90;;;;;;20915431;28;20592;-73
2023/06/10 11:45:56;;;;;;;8.50;3.70;;;27.80;50.60;;;;;;20915326;28;20240;-63
2023/06/10 11:55:57;;;;;;;6.70;3.72;;;28.20;49.60;;;;;;20914546;28;20622;-60
2023/06/10 12:06:01;;;;;;;4.83;3.47;;;28.50;48.40;;;;;;20907945;28;20481;-62
2023/06/10 12:16:07;;;;;;;7.50;3.88;;;29.40;47.20;;;;;;20913058;28;20319;-60
2023/06/10 12:26:09;;;;;;;5.93;4.20;;;29.30;47.50;;;;;;20912342;28;20240;-67
2023/06/10 12:36:17;;;;;;;5.60;3.50;;;29.30;47.60;;;;;;20911487;28;20782;-63
2023/06/10 12:46:19;;;;;;;7.13;3.40;;;29.10;46.80;;;;;;20911776;28;20262;-73
2023/06/10 12:56:21;;;;;;;15.18;3.60;;;29.10;46.00;;;;;;20926404;28;20286;-69
2023/06/10 13:06:23;;;;;;;4.03;3.57;;;28.90;46.00;;;;;;20927753;28;20286;-65
2023/06/10 13:16:25;;;;;;;4.00;3.60;;;28.70;46.10;;;;;;20927095;28;20765;-73
2023/06/10 13:26:27;;;;;;;4.47;3.78;;;29.00;46.20;;;;;;20924695;28;20239;-72
2023/06/10 13:36:29;;;;;;;6.68;3.33;;;29.20;46.20;;;;;;20949183;28;20219;-75
2023/06/10 13:46:31;;;;;;;3.70;3.33;;;29.60;46.10;;;;;;20960538;28;20326;-71
2023/06/10 13:56:37;;;;;;;3.80;3.50;;;29.90;45.50;;;;;;20954855;28;20734;-71
2023/06/10 14:06:39;;;;;;;3.75;3.45;;;30.00;45.30;;;;;;20921858;28;20258;-71
2023/06/10 14:16:41;;;;;;;5.70;3.40;;;29.60;46.10;;;;;;20922029;28;20322;-68
2023/06/10 14:26:44;;;;;;;13.18;3.72;;;29.00;46.80;;;;;;20921153;28;20239;-66
2023/06/10 14:36:46;;;;;;;6.50;2.95;;;30.20;45.70;;;;;;20920450;28;20295;-61
2023/06/10 14:46:47;;;;;;;4.10;3.00;;;30.60;44.90;;;;;;20920012;28;20243;-71
2023/06/10 14:56:50;;;;;;;2.78;2.58;;;31.70;43.50;;;;;;20919098;28;20208;-68
2023/06/10 15:06:51;;;;;;;2.80;2.50;;;33.30;41.80;;;;;;20917973;28;20228;-72
2023/06/10 15:16:53;;;;;;;4.10;2.60;;;33.60;40.80;;;;;;20917189;28;20238;-72
2023/06/10 15:26:55;;;;;;;3.25;2.55;;;31.50;42.80;;;;;;20916450;28;20232;-63
2023/06/10 15:36:57;;;;;;;3.38;2.90;;;29.70;45.40;;;;;;20915932;28;20212;-61
2023/06/10 15:46:59;;;;;;;3.33;2.63;;;28.40;49.20;;;;;;20931213;28;20386;-64
2023/06/10 15:57:03;;;;;;;3.58;3.08;;;;;;;;;;20914492;28;20678;-68
2023/06/10 16:07:04;;;;;;;12.13;3.83;;;27.90;50.30;;;;;;20913593;28;20235;-61
2023/06/10 16:17:07;;;;;;;7.00;4.60;;;36.00;42.00;;;;;;20913149;28;20231;-62
2023/06/10 16:27:09;;;;;;;18.23;5.22;;;40.00;38.30;;;;;;20911971;28;20231;-71
2023/06/10 16:37:11;;;;;;;6.22;4.80;;;38.10;38.80;;;;;;20912305;28;20655;-71
2023/06/10 16:47:13;;;;;;;6.13;5.40;;;34.20;42.80;;;;;;20912264;28;20231;-71
2023/06/10 16:57:15;;;;;;;8.93;5.63;;;33.80;44.10;;;;;;20911720;28;20246;-72
2023/06/10 17:07:17;;;;;;;7.85;5.95;;;35.40;43.00;;;;;;20911305;28;20232;-72
2023/06/10 17:17:19;;;;;;;6.43;4.93;;;32.20;46.40;;;;;;20911976;28;20240;-67
2023/06/10 17:27:21;;;;;;;9.13;5.70;;;34.80;43.10;;;;;;20923062;28;20235;-62
2023/06/10 17:37:26;;;;;;;6.53;5.32;;;33.80;44.60;;;;;;20905643;28;20212;-68
2023/06/10 17:47:28;;;;;;;8.75;6.07;;;37.60;39.80;;;;;;20926050;28;20219;-71
2023/06/10 17:57:31;;;;;;;7.53;5.90;;;32.10;45.30;;;;;;20923645;28;20671;-67
2023/06/10 18:07:33;;;;;;;7.38;6.00;;;30.00;48.30;;;;;;20923045;28;20632;-61
2023/06/10 18:17:35;;;;;;;9.50;6.30;;;29.40;49.50;;;;;;20921211;28;20236;-70
2023/06/10 18:27:37;;;;;;;7.40;6.70;;;28.70;50.90;;;;;;20921271;28;20208;-65
2023/06/10 18:37:39;;;;;;;7.50;6.27;;;28.00;52.00;;;;;;20920171;28;20246;-61
2023/06/10 18:47:40;;;;;;;7.43;5.93;;;27.50;53.20;;;;;;20919754;28;20203;-71
2023/06/10 18:57:58;;;;;;;9.50;6.20;;;27.00;54.20;;;;;;20918940;28;20250;-69
2023/06/10 19:08:00;;;;;;;8.10;6.10;;;26.60;54.90;;;;;;20918172;28;20207;-70
2023/06/10 19:18:02;;;;;;;6.33;5.73;;;26.20;55.50;;;;;;20917918;28;20757;-71
2023/06/10 19:28:06;;;;;;;11.80;6.10;;;25.90;55.80;;;;;;20916808;28;20259;-63
2023/06/10 19:38:08;;;;;;;10.40;5.93;;;25.60;56.30;;;;;;20916672;28;20459;-62
2023/06/10 19:48:10;;;;;;;13.87;6.33;;;25.40;56.70;;;;;;20915251;28;20211;-65
2023/06/10 19:58:12;;;;;;;10.37;5.80;;;25.20;57.30;;;;;;20914247;28;20227;-61
2023/06/10 20:08:14;;;;;;;9.57;6.10;;;24.90;58.20;;;;;;20913653;28;20207;-64
2023/06/10 20:18:16;;;;;;;7.17;6.10;;;24.70;58.90;;;;;;20913104;28;20331;-62
2023/06/10 20:28:17;;;;;;;8.47;6.07;;;24.60;59.40;;;;;;20912069;28;20200;-65
2023/06/10 20:38:22;;;;;;;9.63;6.23;;;24.40;59.80;;;;;;20912315;28;20250;-62
2023/06/10 20:48:24;;;;;;;7.93;6.00;;;24.30;60.40;;;;;;20911876;28;20226;-70
2023/06/10 20:58:25;;;;;;;8.00;6.00;;;24.20;61.00;;;;;;20910991;28;20713;-69
2023/06/10 21:08:27;;;;;;;6.77;6.07;;;24.10;61.50;;;;;;20911747;28;20212;-69
2023/06/10 21:18:31;;;;;;;8.43;6.50;;;23.90;62.10;;;;;;20975896;28;20250;-67
2023/06/10 21:28:33;;;;;;;8.07;6.53;;;23.80;63.00;;;;;;20926404;28;20756;-63
2023/06/10 21:38:34;;;;;;;10.50;6.80;;;23.70;64.30;;;;;;20924390;28;20235;-63
2023/06/10 21:48:36;;;;;;;13.37;7.47;;;23.50;64.20;;;;;;20923090;28;20222;-67
2023/06/10 21:58:38;;;;;;;7.93;7.00;;;23.30;65.00;;;;;;20923785;28;20319;-65
2023/06/10 22:08:40;;;;;;;8.63;7.47;;;23.10;65.90;;;;;;20922990;28;20204;-62
2023/06/10 22:18:42;;;;;;;11.63;7.83;;;23.00;66.70;;;;;;20921883;28;20250;-63
2023/06/10 22:28:43;;;;;;;14.93;11.60;;;22.90;67.30;;;;;;20920830;28;20239;-62
2023/06/10 22:38:45;;;;;;;14.17;10.83;;;22.80;68.10;;;;;;20920630;28;20719;-61
2023/06/10 22:48:47;;;;;;;14.43;8.83;;;22.70;68.90;;;;;;20919921;28;20210;-63
2023/06/10 22:58:48;;;;;;;13.83;7.80;;;22.60;69.40;;;;;;20919245;28;20281;-64
2023/06/10 23:08:50;;;;;;;7.80;6.93;;;22.50;69.60;;;;;;20918475;28;20212;-62
2023/06/10 23:18:53;;;;;;;18.50;7.27;;;22.50;69.70;;;;;;20917310;28;20246;-67
2023/06/10 23:28:55;;;;;;;11.10;7.70;;;22.30;70.00;;;;;;20917017;28;20246;-68
2023/06/10 23:38:56;;;;;;;9.77;7.13;;;22.20;71.20;;;;;;20914743;28;20790;-69
2023/06/10 23:49:01;;;;;;;10.43;7.80;;;22.00;72.80;;;;;;20914970;28;20212;-69
2023/06/10 23:59:03;;;;;;;9.57;6.43;;;21.80;73.90;;;;;;20914368;28;20326;-64
